createdAt,value
2023-01-20T00:01:26.980Z,42.40
2023-01-20T00:04:00.113Z,41.79
2023-01-20T00:06:32.838Z,41.67
2023-01-20T00:09:06.578Z,41.97
2023-01-20T00:11:39.136Z,41.51
2023-01-20T00:14:12.140Z,41.38
2023-01-20T00:16:44.647Z,41.53
2023-01-20T00:19:18.039Z,41.70
2023-01-20T00:21:50.571Z,41.67
2023-01-20T00:24:23.147Z,41.61
2023-01-20T00:26:56.071Z,42.27
2023-01-20T00:29:28.992Z,41.71
2023-01-20T00:32:02.262Z,41.95
2023-01-20T00:34:34.734Z,42.44
2023-01-20T00:37:07.627Z,41.58
2023-01-20T00:39:40.225Z,42.04
2023-01-20T00:42:12.878Z,42.11
2023-01-20T00:44:45.770Z,42.40
2023-01-20T00:47:20.859Z,42.67
2023-01-20T00:50:09.090Z,42.69
2023-01-20T00:52:41.627Z,42.20
2023-01-20T00:55:14.570Z,41.99
2023-01-20T00:57:47.269Z,41.94
2023-01-20T01:00:20.124Z,42.11
2023-01-20T01:02:54.925Z,41.86
2023-01-20T01:05:27.934Z,42.69
2023-01-20T01:08:00.517Z,41.93
2023-01-20T01:10:33.259Z,42.34
2023-01-20T01:13:07.538Z,42.40
2023-01-20T01:15:40.004Z,41.54
2023-01-20T01:18:12.661Z,42.34
2023-01-20T01:20:45.182Z,42.62
2023-01-20T01:23:17.766Z,42.31
2023-01-20T01:25:50.553Z,42.53
2023-01-20T01:28:23.221Z,41.83
2023-01-20T01:30:55.875Z,42.08
2023-01-20T01:33:29.402Z,42.42
2023-01-20T01:36:04.403Z,42.77
2023-01-20T01:38:36.988Z,42.80
2023-01-20T01:41:15.245Z,42.13
2023-01-20T01:44:12.866Z,41.87
2023-01-20T01:46:45.424Z,42.19
2023-01-20T01:49:31.470Z,42.94
2023-01-20T01:52:10.115Z,42.81
2023-01-20T01:54:45.587Z,42.43
2023-01-20T01:57:18.187Z,42.75
2023-01-20T01:59:51.690Z,42.52
2023-01-20T02:02:24.556Z,42.49
2023-01-20T02:04:57.271Z,42.89
2023-01-20T02:07:33.969Z,42.11
2023-01-20T02:10:07.066Z,41.97
2023-01-20T02:12:41.767Z,42.16
2023-01-20T02:15:15.038Z,42.48
2023-01-20T02:18:14.864Z,42.74
2023-01-20T02:21:09.524Z,42.16
2023-01-20T02:23:52.482Z,42.65
2023-01-20T02:26:57.886Z,42.65
2023-01-20T02:30:04.427Z,42.32
2023-01-20T02:33:01.241Z,42.91
2023-01-20T02:35:51.659Z,42.46
2023-01-20T02:38:29.735Z,43.00
2023-01-20T02:41:21.277Z,42.89
2023-01-20T02:44:08.629Z,42.60
2023-01-20T02:46:52.461Z,42.88
2023-01-20T02:49:50.807Z,42.31
2023-01-20T02:52:29.663Z,42.54
2023-01-20T02:55:14.034Z,42.27
2023-01-20T02:57:55.747Z,42.23
2023-01-20T03:00:39.738Z,43.36
2023-01-20T03:03:22.068Z,43.02
2023-01-20T03:05:59.807Z,42.97
2023-01-20T03:08:34.776Z,42.85
2023-01-20T03:11:09.509Z,42.36
2023-01-20T03:13:50.690Z,42.69
2023-01-20T03:16:28.192Z,42.58
2023-01-20T03:19:00.947Z,42.32
2023-01-20T03:21:35.001Z,42.75
2023-01-20T03:24:08.385Z,43.16
2023-01-20T03:26:40.988Z,42.25
2023-01-20T03:29:15.894Z,43.13
2023-01-20T03:31:57.989Z,42.60
2023-01-20T03:34:36.234Z,42.82
2023-01-20T03:37:11.862Z,42.98
2023-01-20T03:39:45.025Z,42.84
2023-01-20T03:43:00.878Z,42.77
2023-01-20T03:45:56.575Z,43.16
2023-01-20T03:48:41.198Z,43.45
2023-01-20T03:51:19.309Z,42.45
2023-01-20T03:54:01.400Z,42.67
2023-01-20T03:56:55.597Z,42.83
2023-01-20T03:59:28.477Z,42.43
2023-01-20T04:02:08.548Z,42.42
2023-01-20T04:04:45.284Z,42.76
2023-01-20T04:07:25.278Z,42.83
2023-01-20T04:10:06.549Z,42.81
2023-01-20T04:12:39.234Z,42.73
2023-01-20T04:15:13.071Z,42.77
2023-01-20T04:17:46.411Z,42.72
2023-01-20T04:20:19.989Z,42.92
2023-01-20T04:22:58.999Z,43.10
2023-01-20T04:25:32.989Z,42.85
2023-01-20T04:28:05.563Z,42.91
2023-01-20T04:30:38.148Z,42.81
2023-01-20T04:33:10.717Z,42.94
2023-01-20T04:35:43.437Z,42.73
2023-01-20T04:38:16.260Z,43.15
2023-01-20T04:40:48.914Z,43.21
2023-01-20T04:43:21.413Z,42.91
2023-01-20T04:45:54.126Z,42.65
2023-01-20T04:48:26.764Z,42.84
2023-01-20T04:51:04.579Z,42.83
2023-01-20T04:53:37.087Z,42.20
2023-01-20T04:56:15.380Z,42.70
2023-01-20T04:58:48.572Z,43.13
2023-01-20T05:01:21.544Z,43.09
2023-01-20T05:03:54.182Z,42.75
2023-01-20T05:06:27.151Z,43.15
2023-01-20T05:08:59.740Z,43.24
2023-01-20T05:11:32.435Z,42.62
2023-01-20T05:14:04.950Z,42.82
2023-01-20T05:16:37.888Z,43.09
2023-01-20T05:19:12.840Z,42.87
2023-01-20T05:21:45.555Z,43.04
2023-01-20T05:24:18.094Z,42.91
2023-01-20T05:26:50.843Z,42.95
2023-01-20T05:29:23.711Z,43.19
2023-01-20T05:31:56.521Z,42.70
2023-01-20T05:34:29.053Z,42.72
2023-01-20T05:37:01.723Z,42.89
2023-01-20T05:39:34.315Z,43.04
2023-01-20T05:42:06.921Z,42.65
2023-01-20T05:44:39.425Z,42.63
2023-01-20T05:47:12.091Z,42.66
2023-01-20T05:49:44.704Z,42.98
2023-01-20T05:52:17.227Z,42.89
2023-01-20T05:54:49.830Z,42.97
2023-01-20T05:57:26.554Z,42.55
2023-01-20T05:59:59.074Z,43.17
2023-01-20T06:02:32.032Z,43.00
2023-01-20T06:05:06.098Z,43.33
2023-01-20T06:07:38.708Z,42.74
2023-01-20T06:10:12.070Z,42.83
2023-01-20T06:12:44.593Z,43.23
2023-01-20T06:15:17.524Z,43.34
2023-01-20T06:17:51.366Z,43.41
2023-01-20T06:20:24.032Z,43.13
2023-01-20T06:22:56.801Z,43.50
2023-01-20T06:25:29.340Z,43.45
2023-01-20T06:28:02.598Z,42.95
2023-01-20T06:30:35.184Z,42.67
2023-01-20T06:33:10.672Z,42.94
2023-01-20T06:35:43.250Z,43.01
2023-01-20T06:38:15.829Z,43.04
2023-01-20T06:40:48.415Z,42.86
2023-01-20T06:43:20.911Z,42.76
2023-01-20T06:45:53.622Z,42.84
2023-01-20T06:48:26.224Z,43.11
2023-01-20T06:51:10.126Z,42.17
2023-01-20T06:53:43.552Z,42.46
2023-01-20T06:56:16.314Z,42.15
2023-01-20T06:58:49.117Z,42.23
2023-01-20T07:01:31.750Z,41.92
2023-01-20T07:04:04.698Z,42.60
2023-01-20T07:06:40.411Z,42.45
2023-01-20T07:09:19.741Z,41.78
2023-01-20T07:11:52.347Z,42.22
2023-01-20T07:14:24.978Z,41.57
2023-01-20T07:17:00.605Z,42.05
2023-01-20T07:19:33.116Z,41.97
2023-01-20T07:22:05.783Z,41.97
2023-01-20T07:24:38.560Z,42.14
2023-01-20T07:27:11.264Z,42.32
2023-01-20T07:29:43.854Z,41.43
2023-01-20T07:32:16.561Z,41.72
2023-01-20T07:34:50.267Z,41.34
2023-01-20T07:37:23.003Z,41.68
2023-01-20T07:39:55.654Z,41.68
2023-01-20T07:42:28.583Z,41.71
2023-01-20T07:45:01.318Z,41.52
2023-01-20T07:47:33.886Z,41.50
2023-01-20T07:50:06.680Z,41.73
2023-01-20T07:52:39.417Z,42.08
2023-01-20T07:55:12.063Z,41.44
2023-01-20T07:57:44.685Z,41.60
2023-01-20T08:00:20.702Z,41.17
2023-01-20T08:02:53.707Z,41.34
2023-01-20T08:05:26.298Z,42.06
2023-01-20T08:07:58.857Z,41.80
2023-01-20T08:10:31.659Z,41.68
2023-01-20T08:13:04.363Z,41.36
2023-01-20T08:15:36.924Z,41.57
2023-01-20T08:18:09.543Z,42.14
2023-01-20T08:20:42.627Z,41.73
2023-01-20T08:23:15.099Z,41.31
2023-01-20T08:25:47.745Z,41.08
2023-01-20T08:28:20.304Z,41.28
2023-01-20T08:30:53.061Z,41.12
2023-01-20T08:33:25.636Z,41.09
2023-01-20T08:36:09.014Z,42.21
2023-01-20T08:38:42.819Z,41.24
2023-01-20T08:41:21.258Z,40.59
2023-01-20T08:43:54.602Z,41.99
2023-01-20T08:46:28.066Z,41.06
2023-01-20T08:49:00.829Z,41.01
2023-01-20T08:51:34.172Z,41.14
2023-01-20T08:54:07.218Z,40.98
2023-01-20T08:56:39.792Z,40.91
2023-01-20T08:59:12.497Z,40.78
2023-01-20T09:01:45.948Z,40.77
2023-01-20T09:04:18.574Z,41.56
2023-01-20T09:06:52.846Z,41.21
2023-01-20T09:09:25.521Z,41.85
2023-01-20T09:11:58.188Z,40.59
2023-01-20T09:14:30.878Z,40.98
2023-01-20T09:17:03.792Z,40.98
2023-01-20T09:19:36.659Z,40.93
2023-01-20T09:22:09.223Z,41.64
2023-01-20T09:24:41.814Z,41.30
2023-01-20T09:27:14.374Z,41.06
2023-01-20T09:29:47.359Z,40.70
2023-01-20T09:32:19.905Z,41.07
2023-01-20T09:34:52.573Z,40.56
2023-01-20T09:37:43.885Z,41.64
2023-01-20T09:40:42.638Z,40.58
2023-01-20T09:44:02.176Z,41.35
2023-01-20T09:47:21.219Z,40.73
2023-01-20T09:50:56.063Z,40.66
2023-01-20T09:53:50.962Z,40.95
2023-01-20T09:56:27.843Z,40.84
2023-01-20T09:59:28.216Z,41.47
2023-01-20T10:02:11.425Z,41.34
2023-01-20T10:04:53.609Z,41.15
2023-01-20T10:07:44.715Z,40.97
2023-01-20T10:10:38.276Z,41.13
2023-01-20T10:13:33.978Z,40.86
2023-01-20T10:16:18.575Z,40.65
2023-01-20T10:19:04.350Z,41.04
2023-01-20T10:21:51.184Z,40.26
2023-01-20T10:24:43.442Z,40.96
2023-01-20T10:27:16.077Z,40.30
2023-01-20T10:30:14.169Z,40.27
2023-01-20T10:33:05.052Z,40.87
2023-01-20T10:35:46.501Z,40.62
2023-01-20T10:38:54.265Z,40.53
2023-01-20T10:42:03.153Z,40.72
2023-01-20T10:44:36.114Z,41.14
2023-01-20T10:47:21.518Z,41.15
2023-01-20T10:50:28.346Z,40.76
2023-01-20T10:53:16.337Z,40.23
2023-01-20T10:56:32.859Z,41.32
2023-01-20T10:59:19.090Z,40.99
2023-01-20T11:02:06.256Z,40.70
2023-01-20T11:04:45.823Z,41.22
2023-01-20T11:07:19.285Z,41.23
2023-01-20T11:09:52.064Z,41.08
2023-01-20T11:12:39.899Z,41.12
2023-01-20T11:15:36.735Z,40.04
2023-01-20T11:18:15.317Z,40.21
2023-01-20T11:21:05.762Z,40.84
2023-01-20T11:23:50.433Z,40.15
2023-01-20T11:26:34.853Z,40.72
2023-01-20T11:29:10.284Z,40.57
2023-01-20T11:31:54.311Z,40.14
2023-01-20T11:34:33.857Z,40.86
2023-01-20T11:37:06.471Z,40.31
2023-01-20T11:39:58.974Z,40.26
2023-01-20T11:42:49.577Z,40.79
2023-01-20T11:45:35.827Z,41.34
2023-01-20T11:48:18.714Z,40.27
2023-01-20T11:51:00.709Z,40.01
2023-01-20T11:53:34.176Z,40.78
2023-01-20T11:56:26.290Z,40.77
2023-01-20T11:59:03.395Z,40.77
2023-01-20T12:02:01.702Z,40.41
2023-01-20T12:04:58.598Z,40.11
2023-01-20T12:07:51.124Z,39.85
2023-01-20T12:10:36.961Z,39.99
2023-01-20T12:13:28.964Z,40.00
2023-01-20T12:16:03.565Z,39.83
2023-01-20T12:19:01.260Z,40.49
2023-01-20T12:21:43.306Z,40.20
2023-01-20T12:24:53.629Z,40.52
2023-01-20T12:27:28.290Z,40.34
2023-01-20T12:30:20.187Z,39.88
2023-01-20T12:32:54.793Z,39.93
2023-01-20T12:35:35.038Z,40.27
2023-01-20T12:38:08.979Z,40.59
2023-01-20T12:40:55.706Z,40.34
2023-01-20T12:43:52.309Z,40.25
2023-01-20T12:46:50.695Z,40.84
2023-01-20T12:50:19.651Z,40.69
2023-01-20T12:53:31.091Z,40.50
2023-01-20T12:56:39.905Z,40.65
2023-01-20T13:00:01.587Z,39.78
2023-01-20T13:03:32.677Z,40.96
2023-01-20T13:06:05.128Z,40.22
2023-01-20T13:08:53.118Z,40.60
2023-01-20T13:11:58.003Z,39.53
2023-01-20T13:14:43.742Z,39.98
2023-01-20T13:17:37.132Z,40.47
2023-01-20T13:20:26.598Z,40.26
2023-01-20T13:23:04.962Z,40.66
2023-01-20T13:25:41.019Z,39.95
2023-01-20T13:28:21.367Z,40.78
2023-01-20T13:30:59.298Z,40.30
2023-01-20T13:33:41.170Z,40.72
2023-01-20T13:36:21.282Z,39.91
2023-01-20T13:39:33.322Z,40.96
2023-01-20T13:42:36.948Z,40.22
2023-01-20T13:45:19.264Z,40.93
2023-01-20T13:48:06.904Z,40.40
2023-01-20T13:50:44.047Z,40.29
2023-01-20T13:53:22.738Z,40.32
2023-01-20T13:56:00.906Z,40.90
2023-01-20T13:58:34.987Z,40.20
2023-01-20T14:01:14.926Z,40.53
2023-01-20T14:04:02.842Z,40.29
2023-01-20T14:06:36.310Z,40.07
2023-01-20T14:09:19.250Z,40.15
2023-01-20T14:11:55.680Z,40.26
2023-01-20T14:14:28.473Z,40.57
2023-01-20T14:17:02.220Z,40.21
2023-01-20T14:19:35.390Z,40.07
2023-01-20T14:22:30.956Z,40.82
2023-01-20T14:25:04.312Z,41.10
2023-01-20T14:27:41.867Z,40.64
2023-01-20T14:30:26.508Z,40.25
2023-01-20T14:32:59.192Z,39.84
2023-01-20T14:35:34.436Z,40.89
2023-01-20T14:38:18.391Z,40.27
2023-01-20T14:40:50.991Z,40.44
2023-01-20T14:43:23.664Z,41.14
2023-01-20T14:45:56.952Z,40.85
2023-01-20T14:48:34.769Z,41.04
2023-01-20T14:51:09.173Z,40.34
2023-01-20T14:53:44.604Z,40.60
2023-01-20T14:56:21.896Z,40.91
2023-01-20T14:58:56.466Z,40.95
2023-01-20T15:01:29.089Z,40.53
2023-01-20T15:04:12.745Z,40.92
2023-01-20T15:06:53.366Z,40.79
2023-01-20T15:09:34.977Z,40.86
2023-01-20T15:12:40.371Z,40.34
2023-01-20T15:15:22.605Z,41.32
2023-01-20T15:18:19.889Z,40.04
2023-01-20T15:21:15.526Z,40.42
2023-01-20T15:23:52.677Z,40.27
2023-01-20T15:26:29.981Z,40.41
2023-01-20T15:29:02.607Z,40.68
2023-01-20T15:31:35.177Z,40.86
2023-01-20T15:34:08.646Z,40.60
2023-01-20T15:36:41.530Z,41.04
2023-01-20T15:39:19.521Z,40.24
2023-01-20T15:41:55.584Z,41.30
2023-01-20T15:44:28.299Z,41.13
2023-01-20T15:47:01.040Z,41.20
2023-01-20T15:49:33.598Z,40.94
2023-01-20T15:52:10.402Z,40.87
2023-01-20T15:54:42.944Z,40.60
2023-01-20T15:57:17.857Z,41.08
2023-01-20T15:59:50.518Z,40.31
2023-01-20T16:02:23.962Z,41.25
2023-01-20T16:04:56.512Z,41.29
2023-01-20T16:07:29.194Z,41.25
2023-01-20T16:10:01.813Z,41.13
2023-01-20T16:12:34.391Z,40.78
2023-01-20T16:15:07.913Z,40.37
2023-01-20T16:17:40.538Z,41.31
2023-01-20T16:20:23.626Z,41.19
2023-01-20T16:22:57.368Z,40.86
2023-01-20T16:25:30.393Z,41.29
2023-01-20T16:28:19.812Z,40.45
2023-01-20T16:30:55.128Z,40.68
2023-01-20T16:33:27.832Z,40.71
2023-01-20T16:36:00.562Z,40.88
2023-01-20T16:38:33.334Z,41.07
2023-01-20T16:41:30.657Z,40.75
2023-01-20T16:44:04.484Z,41.02
2023-01-20T16:46:38.528Z,40.87
2023-01-20T16:49:11.188Z,40.61
2023-01-20T16:51:43.828Z,41.11
2023-01-20T16:54:16.611Z,41.01
2023-01-20T16:56:49.198Z,41.36
2023-01-20T16:59:22.850Z,40.71
2023-01-20T17:01:55.443Z,40.55
2023-01-20T17:04:29.442Z,40.85
2023-01-20T17:07:02.111Z,40.78
2023-01-20T17:09:34.859Z,41.21
2023-01-20T17:12:07.597Z,40.99
2023-01-20T17:14:40.255Z,40.93
2023-01-20T17:17:12.989Z,40.54
2023-01-20T17:19:45.577Z,41.39
2023-01-20T17:22:18.334Z,40.74
2023-01-20T17:24:51.012Z,41.16
2023-01-20T17:27:23.611Z,40.47
2023-01-20T17:29:56.243Z,40.83
2023-01-20T17:32:28.842Z,41.04
2023-01-20T17:35:01.578Z,40.80
2023-01-20T17:37:34.143Z,41.39
2023-01-20T17:40:07.368Z,41.09
2023-01-20T17:42:40.127Z,41.38
2023-01-20T17:45:12.737Z,40.99
2023-01-20T17:47:45.425Z,40.95
2023-01-20T17:50:18.247Z,40.99
2023-01-20T17:52:51.123Z,41.43
2023-01-20T17:55:23.730Z,40.24
2023-01-20T17:57:56.342Z,41.33
2023-01-20T18:00:28.981Z,41.48
2023-01-20T18:03:01.569Z,40.76
2023-01-20T18:05:35.917Z,41.27
2023-01-20T18:08:08.808Z,41.49
2023-01-20T18:10:41.545Z,40.96
2023-01-20T18:13:14.359Z,40.58
2023-01-20T18:15:47.002Z,41.01
2023-01-20T18:18:19.662Z,40.88
2023-01-20T18:20:52.327Z,41.01
2023-01-20T18:23:25.008Z,40.98
2023-01-20T18:25:58.521Z,41.23
2023-01-20T18:28:32.690Z,41.30
2023-01-20T18:31:08.671Z,41.72
2023-01-20T18:33:49.029Z,40.99
2023-01-20T18:36:37.045Z,41.46
2023-01-20T18:39:22.605Z,41.26
2023-01-20T18:41:55.385Z,40.84
2023-01-20T18:44:28.027Z,41.14
2023-01-20T18:47:00.607Z,41.17
2023-01-20T18:49:33.301Z,41.68
2023-01-20T18:52:06.093Z,41.41
2023-01-20T18:54:39.148Z,41.29
2023-01-20T18:57:11.762Z,41.06
2023-01-20T18:59:44.444Z,41.50
2023-01-20T19:02:17.133Z,41.94
2023-01-20T19:04:49.813Z,40.83
2023-01-20T19:07:22.279Z,41.33
2023-01-20T19:09:54.885Z,41.22
2023-01-20T19:12:27.670Z,41.58
2023-01-20T19:15:00.233Z,41.29
2023-01-20T19:17:33.066Z,40.64
2023-01-20T19:20:07.372Z,41.02
2023-01-20T19:22:39.956Z,40.89
2023-01-20T19:25:12.531Z,41.57
2023-01-20T19:27:45.118Z,41.95
2023-01-20T19:30:18.023Z,40.87
2023-01-20T19:32:50.894Z,40.67
2023-01-20T19:35:23.653Z,41.41
2023-01-20T19:37:56.398Z,41.59
2023-01-20T19:40:28.942Z,41.13
2023-01-20T19:43:01.690Z,41.59
2023-01-20T19:45:45.316Z,41.11
2023-01-20T19:48:18.549Z,41.79
2023-01-20T19:50:51.235Z,40.56
2023-01-20T19:53:23.850Z,41.01
2023-01-20T19:56:15.283Z,41.64
2023-01-20T19:58:48.619Z,41.57
2023-01-20T20:01:25.553Z,41.50
2023-01-20T20:04:00.146Z,41.23
2023-01-20T20:06:47.751Z,40.68
2023-01-20T20:09:23.444Z,41.85
2023-01-20T20:11:57.758Z,41.33
2023-01-20T20:14:31.297Z,41.83
2023-01-20T20:17:03.941Z,40.57
2023-01-20T20:19:36.729Z,40.87
2023-01-20T20:22:10.198Z,41.06
2023-01-20T20:24:42.698Z,40.51
2023-01-20T20:27:15.392Z,41.46
2023-01-20T20:29:47.973Z,41.72
2023-01-20T20:32:20.493Z,41.57
2023-01-20T20:34:53.351Z,41.58
2023-01-20T20:37:25.989Z,41.28
2023-01-20T20:39:58.646Z,41.26
2023-01-20T20:42:32.596Z,40.90
2023-01-20T20:45:06.125Z,41.42
2023-01-20T20:47:38.703Z,41.04
2023-01-20T20:50:12.810Z,41.17
2023-01-20T20:52:46.580Z,41.24
2023-01-20T20:55:19.805Z,41.10
2023-01-20T20:57:52.378Z,40.87
2023-01-20T21:00:28.144Z,40.98
2023-01-20T21:03:00.901Z,40.85
2023-01-20T21:05:35.156Z,41.53
2023-01-20T21:08:08.195Z,41.43
2023-01-20T21:10:41.517Z,41.73
2023-01-20T21:13:14.058Z,41.24
2023-01-20T21:16:20.565Z,41.09
2023-01-20T21:18:59.499Z,41.17
2023-01-20T21:21:32.414Z,40.88
2023-01-20T21:24:05.376Z,41.11
2023-01-20T21:26:38.265Z,40.69
2023-01-20T21:29:11.822Z,40.67
2023-01-20T21:31:44.564Z,40.92
2023-01-20T21:34:17.231Z,41.80
2023-01-20T21:36:49.957Z,41.13
2023-01-20T21:39:22.634Z,42.02
2023-01-20T21:41:55.215Z,40.90
2023-01-20T21:44:33.011Z,41.23
2023-01-20T21:47:10.829Z,41.83
2023-01-20T21:50:03.773Z,41.59
2023-01-20T21:52:42.537Z,41.02
2023-01-20T21:55:19.704Z,41.67
2023-01-20T21:57:52.447Z,41.03
2023-01-20T22:00:25.016Z,41.56
2023-01-20T22:02:57.673Z,41.59
2023-01-20T22:05:30.229Z,41.23
2023-01-20T22:08:02.803Z,41.37
2023-01-20T22:10:35.385Z,41.29
2023-01-20T22:13:09.305Z,41.51
2023-01-20T22:15:42.889Z,40.86
2023-01-20T22:18:16.365Z,41.49
2023-01-20T22:20:48.898Z,41.39
2023-01-20T22:23:21.402Z,41.21
2023-01-20T22:25:54.120Z,41.95
2023-01-20T22:28:27.134Z,41.17
2023-01-20T22:31:06.856Z,41.80
2023-01-20T22:33:39.873Z,41.19
2023-01-20T22:36:12.554Z,41.30
2023-01-20T22:38:46.086Z,42.08
2023-01-20T22:41:19.835Z,41.10
2023-01-20T22:43:53.244Z,42.12
2023-01-20T22:46:28.689Z,41.13
2023-01-20T22:49:01.380Z,41.20
2023-01-20T22:51:33.940Z,41.71
2023-01-20T22:54:07.543Z,41.83
2023-01-20T22:56:40.310Z,41.53
2023-01-20T22:59:13.793Z,42.02
2023-01-20T23:01:46.537Z,41.48
2023-01-20T23:04:19.138Z,41.40
2023-01-20T23:06:51.840Z,41.16
2023-01-20T23:09:24.621Z,41.11
2023-01-20T23:11:57.186Z,41.01
2023-01-20T23:14:48.187Z,41.53
2023-01-20T23:17:20.750Z,40.70
2023-01-20T23:19:55.183Z,40.93
2023-01-20T23:22:29.707Z,41.52
2023-01-20T23:25:02.427Z,41.18
2023-01-20T23:27:34.942Z,40.59
2023-01-20T23:30:10.283Z,41.98
2023-01-20T23:32:42.994Z,40.64
2023-01-20T23:35:15.857Z,40.73
2023-01-20T23:37:49.720Z,41.08
2023-01-20T23:40:23.104Z,41.16
2023-01-20T23:42:55.754Z,41.21
2023-01-20T23:45:28.781Z,40.77
2023-01-20T23:48:01.591Z,41.07
2023-01-20T23:50:34.353Z,41.18
2023-01-20T23:53:06.908Z,41.54
2023-01-20T23:55:39.612Z,41.10
2023-01-20T23:58:12.330Z,41.44
